createdAt,value
2019-01-20T00:00:56.695Z,11.85
2019-01-20T00:03:25.879Z,12.63
2019-01-20T00:05:54.788Z,11.60
2019-01-20T00:08:23.728Z,12.30
2019-01-20T00:10:52.640Z,11.97
2019-01-20T00:13:21.689Z,12.03
2019-01-20T00:15:51.962Z,12.30
2019-01-20T00:18:23.038Z,14.50
2019-01-20T00:20:51.979Z,11.60
2019-01-20T00:23:23.831Z,11.85
2019-01-20T00:25:53.695Z,11.83
2019-01-20T00:28:22.744Z,12.05
2019-01-20T00:30:53.001Z,12.18
2019-01-20T00:33:21.981Z,11.50
2019-01-20T00:35:51.029Z,11.10
2019-01-20T00:38:20.033Z,11.48
2019-01-20T00:40:48.975Z,12.00
2019-01-20T00:43:19.141Z,13.13
2019-01-20T00:45:47.941Z,15.23
2019-01-20T00:48:16.955Z,14.45
2019-01-20T00:50:45.812Z,13.25
2019-01-20T00:53:14.985Z,15.45
2019-01-20T00:55:45.366Z,16.55
2019-01-20T00:58:14.437Z,18.48
2019-01-20T01:00:44.862Z,18.48
2019-01-20T01:03:14.181Z,20.82
2019-01-20T01:05:43.187Z,18.95
2019-01-20T01:08:14.814Z,18.50
2019-01-20T01:10:53.556Z,20.43
2019-01-20T01:13:23.097Z,17.82
2019-01-20T01:15:52.194Z,18.48
2019-01-20T01:18:21.135Z,18.25
2019-01-20T01:20:50.041Z,17.23
2019-01-20T01:23:21.841Z,16.90
2019-01-20T01:25:50.776Z,18.35
2019-01-20T01:28:19.906Z,17.77
2019-01-20T01:30:48.913Z,14.38
2019-01-20T01:33:17.899Z,15.58
2019-01-20T01:35:46.903Z,13.03
2019-01-20T01:38:15.833Z,15.60
2019-01-20T01:40:44.653Z,15.38
2019-01-20T01:43:13.575Z,16.87
2019-01-20T01:45:42.621Z,15.78
2019-01-20T01:48:11.500Z,16.70
2019-01-20T01:50:40.318Z,18.07
2019-01-20T01:53:09.303Z,14.25
2019-01-20T01:55:39.207Z,17.20
2019-01-20T01:58:08.349Z,16.25
2019-01-20T02:00:37.429Z,15.90
2019-01-20T02:03:06.445Z,14.73
2019-01-20T02:05:36.824Z,15.85
2019-01-20T02:08:06.243Z,15.32
2019-01-20T02:10:35.701Z,15.93
2019-01-20T02:13:04.809Z,16.23
2019-01-20T02:15:33.802Z,15.00
2019-01-20T02:18:02.903Z,15.83
2019-01-20T02:20:34.490Z,15.88
2019-01-20T02:23:03.359Z,14.15
2019-01-20T02:25:32.276Z,14.20
2019-01-20T02:28:01.290Z,15.63
2019-01-20T02:30:31.144Z,16.12
2019-01-20T02:33:08.228Z,15.38
2019-01-20T02:35:35.154Z,15.70
2019-01-20T02:38:05.887Z,15.20
2019-01-20T02:40:36.337Z,16.23
2019-01-20T02:43:06.606Z,16.85
2019-01-20T02:45:35.485Z,16.82
2019-01-20T02:48:07.847Z,17.73
2019-01-20T02:50:37.171Z,14.95
2019-01-20T02:53:06.400Z,17.55
2019-01-20T02:55:35.522Z,16.42
2019-01-20T02:58:07.257Z,15.58
2019-01-20T03:00:36.693Z,15.32
2019-01-20T03:03:05.644Z,15.80
2019-01-20T03:05:34.762Z,14.75
2019-01-20T03:08:03.758Z,15.48
2019-01-20T03:10:33.376Z,14.50
2019-01-20T03:13:02.285Z,15.53
2019-01-20T03:15:31.325Z,16.57
2019-01-20T03:18:00.223Z,14.33
2019-01-20T03:20:29.087Z,13.78
2019-01-20T03:22:57.987Z,14.65
2019-01-20T03:25:30.391Z,15.03
2019-01-20T03:27:59.283Z,15.15
2019-01-20T03:30:28.999Z,16.40
2019-01-20T03:32:57.909Z,15.50
2019-01-20T03:35:28.207Z,15.40
2019-01-20T03:37:59.948Z,14.93
2019-01-20T03:40:30.216Z,13.68
2019-01-20T03:43:01.921Z,15.03
2019-01-20T03:45:30.813Z,13.20
2019-01-20T03:48:01.167Z,12.93
2019-01-20T03:50:30.531Z,14.50
2019-01-20T03:53:00.067Z,14.28
2019-01-20T03:55:29.865Z,15.20
2019-01-20T03:58:00.146Z,12.55
2019-01-20T04:00:29.062Z,13.45
2019-01-20T04:03:00.023Z,14.98
2019-01-20T04:05:30.610Z,13.08
2019-01-20T04:07:59.955Z,14.50
2019-01-20T04:10:30.189Z,13.60
2019-01-20T04:12:59.383Z,13.80
2019-01-20T04:15:29.551Z,12.25
2019-01-20T04:17:58.484Z,13.80
2019-01-20T04:20:27.880Z,13.28
2019-01-20T04:22:56.753Z,15.72
2019-01-20T04:25:25.623Z,14.33
2019-01-20T04:27:54.653Z,13.35
2019-01-20T04:30:23.652Z,13.80
2019-01-20T04:32:52.676Z,13.78
2019-01-20T04:35:23.009Z,13.93
2019-01-20T04:37:53.993Z,14.35
2019-01-20T04:40:23.499Z,14.60
2019-01-20T04:42:52.509Z,13.78
2019-01-20T04:45:24.812Z,15.35
2019-01-20T04:47:54.078Z,14.30
2019-01-20T04:50:24.847Z,12.33
2019-01-20T04:52:53.720Z,11.35
2019-01-20T04:55:25.848Z,11.33
2019-01-20T04:57:55.440Z,13.20
2019-01-20T05:00:26.727Z,13.43
2019-01-20T05:02:56.422Z,12.55
2019-01-20T05:05:25.645Z,11.53
2019-01-20T05:07:56.175Z,13.23
2019-01-20T05:10:26.564Z,13.85
2019-01-20T05:12:56.195Z,13.60
2019-01-20T05:15:25.301Z,13.70
2019-01-20T05:17:54.128Z,13.90
2019-01-20T05:20:23.870Z,13.85
2019-01-20T05:22:52.858Z,12.55
2019-01-20T05:25:22.115Z,11.25
2019-01-20T05:27:51.183Z,12.23
2019-01-20T05:30:23.671Z,11.88
2019-01-20T05:32:52.874Z,12.93
2019-01-20T05:35:23.747Z,14.53
2019-01-20T05:37:52.670Z,12.73
2019-01-20T05:40:23.507Z,13.65
2019-01-20T05:42:52.397Z,13.45
2019-01-20T05:45:23.446Z,11.57
2019-01-20T05:47:57.200Z,12.90
2019-01-20T05:50:26.426Z,12.33
2019-01-20T05:52:56.318Z,13.10
2019-01-20T05:55:25.301Z,12.68
2019-01-20T05:57:54.242Z,13.53
2019-01-20T06:00:25.877Z,12.90
2019-01-20T06:02:55.730Z,13.25
2019-01-20T06:05:25.420Z,13.30
2019-01-20T06:07:54.393Z,13.88
2019-01-20T06:10:24.852Z,12.75
2019-01-20T06:12:54.584Z,12.82
2019-01-20T06:15:25.362Z,12.70
2019-01-20T06:17:54.965Z,12.50
2019-01-20T06:20:24.317Z,12.50
2019-01-20T06:22:53.358Z,12.93
2019-01-20T06:25:24.920Z,12.63
2019-01-20T06:27:55.380Z,12.82
2019-01-20T06:30:28.349Z,12.85
2019-01-20T06:32:57.379Z,12.65
2019-01-20T06:35:27.555Z,12.50
2019-01-20T06:37:56.463Z,14.30
2019-01-20T06:40:26.739Z,14.45
2019-01-20T06:43:01.769Z,15.43
2019-01-20T06:45:26.476Z,15.50
2019-01-20T06:47:56.039Z,12.63
2019-01-20T06:50:26.098Z,13.15
2019-01-20T06:52:56.537Z,12.73
2019-01-20T06:55:26.348Z,26.40
2019-01-20T06:57:55.263Z,27.00
2019-01-20T07:00:27.475Z,17.20
2019-01-20T07:02:56.370Z,15.68
2019-01-20T07:05:25.312Z,18.52
2019-01-20T07:07:54.632Z,21.90
2019-01-20T07:10:26.479Z,13.08
2019-01-20T07:12:56.108Z,16.65
2019-01-20T07:15:25.254Z,13.88
2019-01-20T07:17:54.450Z,14.28
2019-01-20T07:20:23.911Z,13.80
2019-01-20T07:22:54.233Z,14.50
2019-01-20T07:25:24.533Z,14.73
2019-01-20T07:27:55.437Z,13.93
2019-01-20T07:30:25.972Z,14.95
2019-01-20T07:32:57.603Z,14.00
2019-01-20T07:35:28.474Z,16.17
2019-01-20T07:37:57.448Z,14.80
2019-01-20T07:40:26.386Z,15.10
2019-01-20T07:42:56.130Z,15.50
2019-01-20T07:45:25.064Z,16.48
2019-01-20T07:47:53.989Z,22.62
2019-01-20T07:50:25.028Z,23.12
2019-01-20T07:52:54.136Z,23.15
2019-01-20T07:55:23.246Z,24.72
2019-01-20T07:57:53.282Z,20.80
2019-01-20T08:00:24.384Z,25.23
2019-01-20T08:02:53.485Z,24.93
2019-01-20T08:05:24.556Z,25.47
2019-01-20T08:07:53.576Z,21.93
2019-01-20T08:10:25.000Z,21.97
2019-01-20T08:12:54.039Z,21.47
2019-01-20T08:15:23.222Z,27.43
2019-01-20T08:17:53.589Z,17.40
2019-01-20T08:20:24.288Z,17.00
2019-01-20T08:22:53.503Z,19.10
2019-01-20T08:25:23.552Z,12.87
2019-01-20T08:27:52.689Z,12.77
2019-01-20T08:30:23.966Z,12.83
2019-01-20T08:32:52.962Z,11.73
2019-01-20T08:35:23.983Z,10.80
2019-01-20T08:37:53.022Z,12.23
2019-01-20T08:40:24.443Z,11.53
2019-01-20T08:42:53.296Z,10.57
2019-01-20T08:45:23.542Z,11.07
2019-01-20T08:47:54.326Z,11.67
2019-01-20T08:50:24.032Z,10.60
2019-01-20T08:52:52.920Z,9.57
2019-01-20T08:55:22.239Z,11.60
2019-01-20T08:57:51.050Z,10.50
2019-01-20T09:00:20.294Z,11.57
2019-01-20T09:02:50.654Z,11.27
2019-01-20T09:05:21.110Z,11.97
2019-01-20T09:07:51.531Z,10.97
2019-01-20T09:10:25.102Z,10.07
2019-01-20T09:12:56.440Z,10.47
2019-01-20T09:15:25.409Z,10.83
2019-01-20T09:17:54.416Z,10.70
2019-01-20T09:20:24.343Z,10.50
2019-01-20T09:22:54.629Z,9.80
2019-01-20T09:25:23.697Z,10.00
2019-01-20T09:27:52.683Z,9.30
2019-01-20T09:30:23.535Z,9.93
2019-01-20T09:32:52.767Z,11.17
2019-01-20T09:35:22.669Z,12.97
2019-01-20T09:37:53.783Z,13.23
2019-01-20T09:40:22.867Z,12.20
2019-01-20T09:42:52.778Z,15.30
2019-01-20T09:45:27.169Z,16.57
2019-01-20T09:47:56.399Z,15.90
2019-01-20T09:50:25.625Z,12.60
2019-01-20T09:52:54.906Z,11.23
2019-01-20T09:55:23.998Z,10.90
2019-01-20T09:57:54.122Z,11.60
2019-01-20T10:00:26.173Z,13.10
2019-01-20T10:02:55.454Z,13.40
2019-01-20T10:05:25.846Z,16.57
2019-01-20T10:08:01.048Z,15.20
2019-01-20T10:10:30.699Z,13.57
2019-01-20T10:12:59.736Z,22.40
2019-01-20T10:15:28.651Z,15.93
2019-01-20T10:17:58.227Z,13.97
2019-01-20T10:20:29.633Z,10.60
2019-01-20T10:22:59.597Z,12.63
2019-01-20T10:25:28.674Z,14.40
2019-01-20T10:27:58.800Z,10.40
2019-01-20T10:30:30.453Z,10.20
2019-01-20T10:33:03.672Z,10.20
2019-01-20T10:35:35.640Z,9.00
2019-01-20T10:38:06.816Z,9.97
2019-01-20T10:40:35.706Z,11.30
2019-01-20T10:43:06.485Z,11.23
2019-01-20T10:45:35.782Z,10.33
2019-01-20T10:48:05.866Z,10.17
2019-01-20T10:50:34.867Z,10.40
2019-01-20T10:53:03.932Z,10.50
2019-01-20T10:55:33.454Z,9.30
2019-01-20T10:58:03.112Z,10.20
2019-01-20T11:00:36.531Z,10.07
2019-01-20T11:03:06.848Z,10.00
2019-01-20T11:05:36.201Z,11.07
2019-01-20T11:08:06.822Z,10.73
2019-01-20T11:10:36.012Z,11.93
2019-01-20T11:13:05.690Z,10.30
2019-01-20T11:15:34.712Z,11.10
2019-01-20T11:18:03.749Z,11.67
2019-01-20T11:20:34.116Z,11.87
2019-01-20T11:23:03.152Z,11.00
2019-01-20T11:25:35.441Z,11.60
2019-01-20T11:28:04.849Z,11.83
2019-01-20T11:30:34.012Z,11.57
2019-01-20T11:33:05.202Z,12.70
2019-01-20T11:35:35.521Z,11.13
2019-01-20T11:38:05.991Z,11.00
2019-01-20T11:40:36.473Z,10.80
2019-01-20T11:43:07.111Z,10.17
2019-01-20T11:45:36.243Z,10.63
2019-01-20T11:48:08.737Z,11.03
2019-01-20T11:50:38.443Z,10.90
2019-01-20T11:53:07.473Z,9.73
2019-01-20T11:55:37.197Z,9.80
2019-01-20T11:58:06.156Z,12.10
2019-01-20T12:00:36.839Z,10.70
2019-01-20T12:03:07.782Z,11.30
2019-01-20T12:05:39.625Z,10.67
2019-01-20T12:08:09.149Z,10.97
2019-01-20T12:10:38.357Z,10.83
2019-01-20T12:13:10.200Z,10.77
2019-01-20T12:15:39.059Z,10.10
2019-01-20T12:18:08.048Z,10.17
2019-01-20T12:20:39.599Z,9.50
2019-01-20T12:23:08.684Z,10.10
2019-01-20T12:25:37.927Z,9.23
2019-01-20T12:28:07.034Z,11.67
2019-01-20T12:30:38.549Z,11.20
2019-01-20T12:33:07.888Z,9.10
2019-01-20T12:35:38.339Z,8.50
2019-01-20T12:38:07.388Z,9.40
2019-01-20T12:40:39.281Z,11.80
2019-01-20T12:43:11.482Z,9.30
2019-01-20T12:45:40.663Z,8.40
2019-01-20T12:48:09.669Z,9.80
2019-01-20T12:50:38.565Z,8.83
2019-01-20T12:53:10.213Z,9.00
2019-01-20T12:55:40.691Z,7.97
2019-01-20T12:58:11.242Z,8.50
2019-01-20T13:00:40.291Z,8.50
2019-01-20T13:03:11.892Z,9.10
2019-01-20T13:05:40.765Z,8.53
2019-01-20T13:08:09.650Z,8.07
2019-01-20T13:10:38.752Z,7.80
2019-01-20T13:13:09.128Z,8.07
2019-01-20T13:15:39.333Z,8.00
2019-01-20T13:18:08.546Z,8.13
2019-01-20T13:20:37.697Z,8.00
2019-01-20T13:23:06.713Z,5.97
2019-01-20T13:25:35.827Z,7.67
2019-01-20T13:28:05.683Z,6.60
2019-01-20T13:30:34.691Z,6.20
2019-01-20T13:33:03.633Z,6.80
2019-01-20T13:35:33.911Z,6.93
2019-01-20T13:38:05.412Z,7.13
2019-01-20T13:40:37.510Z,9.37
2019-01-20T13:43:07.779Z,6.37
2019-01-20T13:45:38.948Z,5.63
2019-01-20T13:48:11.418Z,6.97
2019-01-20T13:50:41.400Z,7.40
2019-01-20T13:53:11.100Z,6.17
2019-01-20T13:55:40.220Z,7.00
2019-01-20T13:58:09.327Z,6.40
2019-01-20T14:00:39.608Z,8.17
2019-01-20T14:03:09.499Z,7.60
2019-01-20T14:05:39.720Z,5.97
2019-01-20T14:08:08.887Z,6.20
2019-01-20T14:10:38.870Z,6.20
2019-01-20T14:13:09.221Z,6.50
2019-01-20T14:15:38.239Z,6.07
2019-01-20T14:18:08.365Z,7.23
2019-01-20T14:20:37.388Z,6.97
2019-01-20T14:23:06.447Z,7.37
2019-01-20T14:25:35.518Z,7.00
2019-01-20T14:28:07.447Z,7.33
2019-01-20T14:30:37.004Z,5.90
2019-01-20T14:33:06.138Z,5.93
2019-01-20T14:35:36.345Z,6.10
2019-01-20T14:38:05.418Z,5.50
2019-01-20T14:40:36.302Z,6.10
2019-01-20T14:45:56.818Z,5.60
2019-01-20T14:48:26.893Z,6.83
2019-01-20T14:50:55.969Z,6.77
2019-01-20T14:53:27.256Z,6.20
2019-01-20T14:55:57.568Z,6.20
2019-01-20T14:58:26.454Z,7.47
2019-01-20T15:00:55.907Z,6.03
2019-01-20T15:03:32.428Z,7.93
2019-01-20T15:05:58.771Z,8.10
2019-01-20T15:08:27.995Z,6.27
2019-01-20T15:10:57.000Z,6.93
2019-01-20T15:13:27.527Z,6.10
2019-01-20T15:15:56.531Z,6.80
2019-01-20T15:18:25.586Z,6.90
2019-01-20T15:20:57.250Z,8.50
2019-01-20T15:23:26.566Z,9.87
2019-01-20T15:25:56.944Z,8.80
2019-01-20T15:28:27.449Z,5.53
2019-01-20T15:30:56.824Z,8.10
2019-01-20T15:33:27.641Z,7.60
2019-01-20T15:35:56.906Z,6.13
2019-01-20T15:38:27.258Z,6.27
2019-01-20T15:43:49.944Z,7.77
2019-01-20T15:46:20.382Z,7.63
2019-01-20T15:48:51.348Z,6.80
2019-01-20T15:51:20.623Z,7.60
2019-01-20T15:53:53.306Z,8.10
2019-01-20T15:56:23.878Z,7.80
2019-01-20T15:58:53.784Z,7.50
2019-01-20T16:01:24.292Z,8.07
2019-01-20T16:03:54.256Z,9.43
2019-01-20T16:06:24.440Z,8.90
2019-01-20T16:08:57.953Z,10.03
2019-01-20T16:11:31.298Z,11.80
2019-01-20T16:13:58.818Z,12.97
2019-01-20T16:16:27.943Z,12.20
2019-01-20T16:19:02.039Z,12.03
2019-01-20T16:21:31.786Z,12.63
2019-01-20T16:24:00.895Z,12.50
2019-01-20T16:26:31.733Z,11.97
2019-01-20T16:29:01.700Z,14.23
2019-01-20T16:31:32.472Z,13.43
2019-01-20T16:34:02.247Z,13.90
2019-01-20T16:36:31.241Z,14.77
2019-01-20T16:39:01.460Z,16.77
2019-01-20T16:41:33.101Z,24.83
2019-01-20T16:44:05.018Z,21.30
2019-01-20T16:46:37.305Z,17.97
2019-01-20T16:49:06.424Z,19.33
2019-01-20T16:51:35.492Z,19.10
2019-01-20T16:54:04.786Z,19.00
2019-01-20T16:56:33.688Z,19.57
2019-01-20T16:59:02.876Z,19.87
2019-01-20T17:01:32.097Z,16.47
2019-01-20T17:04:01.076Z,16.77
2019-01-20T17:06:30.016Z,16.10
2019-01-20T17:09:00.427Z,16.97
2019-01-20T17:11:29.466Z,16.80
2019-01-20T17:13:58.538Z,18.00
2019-01-20T17:16:27.566Z,17.70
2019-01-20T17:18:58.018Z,18.17
2019-01-20T17:21:27.061Z,16.60
2019-01-20T17:23:56.134Z,17.93
2019-01-20T17:26:25.120Z,17.83
2019-01-20T17:28:54.114Z,16.90
2019-01-20T17:31:23.241Z,17.33
2019-01-20T17:33:54.057Z,19.30
2019-01-20T17:36:24.355Z,19.50
2019-01-20T17:38:53.278Z,18.90
2019-01-20T17:41:27.404Z,17.70
2019-01-20T17:43:56.634Z,17.57
2019-01-20T17:46:27.259Z,16.93
2019-01-20T17:48:57.890Z,18.10
2019-01-20T17:51:29.783Z,19.43
2019-01-20T17:54:01.385Z,20.03
2019-01-20T17:56:31.597Z,18.13
2019-01-20T17:59:01.682Z,17.77
2019-01-20T18:01:32.702Z,16.93
2019-01-20T18:04:03.224Z,18.43
2019-01-20T18:06:34.373Z,17.77
2019-01-20T18:09:03.791Z,19.73
2019-01-20T18:11:33.418Z,19.63
2019-01-20T18:14:02.525Z,19.80
2019-01-20T18:16:32.394Z,20.17
2019-01-20T18:19:01.653Z,20.90
2019-01-20T18:21:30.687Z,23.37
2019-01-20T18:23:59.730Z,19.70
2019-01-20T18:26:29.733Z,19.83
2019-01-20T18:28:59.741Z,17.83
2019-01-20T18:31:31.708Z,20.27
2019-01-20T18:34:02.048Z,19.70
2019-01-20T18:36:32.366Z,18.37
2019-01-20T18:39:01.561Z,26.00
2019-01-20T18:41:32.046Z,26.73
2019-01-20T18:44:01.081Z,16.90
2019-01-20T18:46:31.305Z,18.80
2019-01-20T18:49:00.334Z,20.80
2019-01-20T18:51:29.309Z,19.97
2019-01-20T18:53:59.134Z,19.53
2019-01-20T18:56:31.468Z,18.63
2019-01-20T18:59:01.415Z,19.40
2019-01-20T19:01:34.720Z,23.90
2019-01-20T19:04:04.095Z,25.97
2019-01-20T19:06:33.246Z,25.70
2019-01-20T19:09:02.453Z,23.73
2019-01-20T19:11:31.999Z,20.27
2019-01-20T19:14:01.132Z,19.73
2019-01-20T19:16:30.388Z,17.97
2019-01-20T19:19:00.087Z,21.77
2019-01-20T19:21:29.217Z,18.87
2019-01-20T19:23:59.194Z,19.67
2019-01-20T19:26:30.321Z,18.97
2019-01-20T19:29:03.169Z,22.20
2019-01-20T19:31:31.334Z,22.50
2019-01-20T19:34:00.673Z,20.17
2019-01-20T19:36:31.218Z,25.67
2019-01-20T19:39:01.801Z,20.73
2019-01-20T19:41:31.610Z,21.30
2019-01-20T19:44:02.913Z,21.43
2019-01-20T19:46:33.136Z,22.00
2019-01-20T19:49:03.674Z,20.83
2019-01-20T19:51:33.130Z,21.10
2019-01-20T19:54:03.309Z,19.80
2019-01-20T19:56:35.208Z,26.70
2019-01-20T19:59:04.488Z,27.30
2019-01-20T20:01:33.537Z,22.87
2019-01-20T20:04:04.079Z,22.07
2019-01-20T20:06:33.174Z,24.30
2019-01-20T20:09:02.312Z,22.13
2019-01-20T20:11:31.450Z,22.70
2019-01-20T20:14:00.324Z,24.27
2019-01-20T20:16:29.664Z,23.10
2019-01-20T20:18:58.557Z,23.40
2019-01-20T20:21:27.541Z,23.40
2019-01-20T20:23:56.400Z,25.12
2019-01-20T20:26:25.462Z,24.30
2019-01-20T20:28:54.459Z,25.10
2019-01-20T20:31:23.633Z,28.75
2019-01-20T20:33:52.684Z,31.53
2019-01-20T20:36:21.858Z,27.57
2019-01-20T20:38:52.743Z,26.40
2019-01-20T20:41:21.872Z,26.83
2019-01-20T20:43:51.072Z,26.80
2019-01-20T20:46:20.570Z,28.23
2019-01-20T20:48:50.064Z,27.43
2019-01-20T20:51:19.050Z,28.37
2019-01-20T20:53:49.600Z,29.47
2019-01-20T20:56:18.912Z,33.23
2019-01-20T20:58:49.488Z,32.43
2019-01-20T21:01:21.218Z,32.33
2019-01-20T21:03:50.208Z,33.37
2019-01-20T21:06:19.286Z,35.27
2019-01-20T21:08:48.603Z,34.03
2019-01-20T21:11:17.574Z,32.50
2019-01-20T21:13:46.420Z,32.60
2019-01-20T21:16:15.434Z,32.70
2019-01-20T21:18:45.331Z,32.80
2019-01-20T21:21:14.441Z,28.67
2019-01-20T21:23:43.371Z,26.50
2019-01-20T21:26:12.334Z,24.40
2019-01-20T21:28:42.794Z,24.07
2019-01-20T21:31:12.075Z,23.00
2019-01-20T21:33:43.610Z,23.00
2019-01-20T21:36:13.650Z,24.27
2019-01-20T21:38:42.571Z,24.53
2019-01-20T21:41:12.681Z,26.20
2019-01-20T21:43:41.906Z,26.40
2019-01-20T21:46:10.788Z,25.90
2019-01-20T21:48:41.149Z,24.80
2019-01-20T21:51:10.081Z,27.10
2019-01-20T21:53:39.438Z,26.12
2019-01-20T21:56:08.317Z,28.60
2019-01-20T21:58:37.342Z,26.52
2019-01-20T22:01:06.314Z,27.65
2019-01-20T22:03:35.271Z,30.00
2019-01-20T22:06:04.354Z,23.75
2019-01-20T22:08:34.976Z,23.87
2019-01-20T22:11:05.066Z,28.60
2019-01-20T22:13:35.372Z,29.00
2019-01-20T22:16:04.347Z,32.20
2019-01-20T22:18:33.883Z,27.35
2019-01-20T22:21:02.783Z,26.75
2019-01-20T22:23:31.866Z,28.15
2019-01-20T22:26:01.131Z,28.92
2019-01-20T22:28:31.666Z,30.08
2019-01-20T22:31:00.595Z,31.23
2019-01-20T22:33:29.480Z,30.30
2019-01-20T22:35:58.469Z,31.57
2019-01-20T22:38:27.417Z,31.10
2019-01-20T22:40:56.464Z,31.07
2019-01-20T22:43:25.495Z,30.20
2019-01-20T22:45:54.623Z,30.90
2019-01-20T22:48:23.771Z,30.10
2019-01-20T22:50:52.774Z,27.77
2019-01-20T22:53:21.701Z,27.65
2019-01-20T22:55:50.668Z,29.87
2019-01-20T22:58:19.892Z,30.50
2019-01-20T23:00:52.880Z,30.62
2019-01-20T23:03:22.201Z,30.43
2019-01-20T23:05:51.523Z,31.25
2019-01-20T23:08:21.882Z,28.17
2019-01-20T23:10:51.195Z,27.17
2019-01-20T23:13:20.266Z,27.37
2019-01-20T23:15:49.468Z,27.48
2019-01-20T23:18:21.195Z,25.52
2019-01-20T23:20:50.843Z,25.52
2019-01-20T23:23:24.401Z,27.98
2019-01-20T23:25:53.389Z,27.32
2019-01-20T23:28:25.113Z,27.73
2019-01-20T23:30:54.446Z,27.10
2019-01-20T23:33:25.082Z,27.50
2019-01-20T23:35:54.041Z,27.15
2019-01-20T23:38:22.963Z,27.77
2019-01-20T23:40:52.340Z,28.73
2019-01-20T23:43:21.240Z,28.75
2019-01-20T23:45:50.284Z,30.50
2019-01-20T23:48:19.178Z,30.00
2019-01-20T23:50:48.799Z,27.45
2019-01-20T23:53:19.343Z,26.80
2019-01-20T23:55:48.284Z,27.17
2019-01-20T23:58:17.518Z,32.33
